Time;durP1;ratioP1;P1;durP2;ratioP2;P2;SDS_P1;SDS_P2;PMS_P1;PMS_P2;Temp;Humidity;BMP_temperature;BMP_pressure;BME280_temperature;BME280_humidity;BME280_pressure;Samples;Min_cycle;Max_cycle;Signal;HPM_P1;HPM_P2
2022/04/21 00:00:30;;;;;;;8.77;4.37;;;;;;;-145.18;100.00;60484.78;5019494;28;20356;-70
2022/04/21 00:02:55;;;;;;;8.67;4.07;;;;;;;-145.18;100.00;60484.78;5023003;28;20036;-70
2022/04/21 00:05:21;;;;;;;6.93;3.63;;;;;;;-145.18;100.00;60484.78;5019853;28;20452;-70
2022/04/21 00:07:48;;;;;;;10.80;4.53;;;;;;;-145.18;100.00;60484.78;5021398;28;20544;-70
2022/04/21 00:10:14;;;;;;;6.20;3.80;;;;;;;-145.18;100.00;60484.78;5021400;28;20472;-70
2022/04/21 00:12:40;;;;;;;7.27;3.77;;;;;;;-145.18;100.00;60484.78;5023688;28;20034;-70
2022/04/21 00:15:06;;;;;;;8.20;4.30;;;;;;;-145.18;100.00;60484.78;5021286;28;20041;-70
2022/04/21 00:17:32;;;;;;;7.87;3.97;;;;;;;-145.18;100.00;60484.78;5021252;28;20456;-70
2022/04/21 00:19:59;;;;;;;6.50;4.07;;;;;;;-145.18;100.00;60484.78;5015079;28;20053;-70
2022/04/21 00:25:09;;;;;;;7.33;4.23;;;;;;;-145.18;100.00;60484.78;5017592;28;20092;-70
2022/04/21 00:27:38;;;;;;;6.93;4.47;;;;;;;-145.18;100.00;60484.78;5018189;28;20121;-69
2022/04/21 00:30:06;;;;;;;7.60;4.57;;;;;;;-145.18;100.00;60484.78;5017561;28;20041;-69
2022/04/21 00:32:33;;;;;;;8.57;4.60;;;;;;;-145.18;100.00;60484.78;5025626;28;20473;-70
2022/04/21 00:34:58;;;;;;;6.77;4.53;;;;;;;-145.18;100.00;60484.78;5033638;28;20087;-69
2022/04/21 00:37:24;;;;;;;7.97;5.10;;;;;;;-145.18;100.00;60484.78;5024926;28;20026;-69
2022/04/21 00:39:50;;;;;;;10.90;5.37;;;;;;;-145.18;100.00;60484.78;5024458;28;20030;-69
2022/04/21 00:42:15;;;;;;;8.47;5.70;;;;;;;-145.18;100.00;60484.78;5025735;28;20032;-69
2022/04/21 00:44:41;;;;;;;12.93;5.67;;;;;;;-145.18;100.00;60484.78;5027574;28;20036;-69
2022/04/21 00:47:07;;;;;;;9.17;5.50;;;;;;;-145.18;100.00;60484.78;5021762;28;20068;-70
2022/04/21 00:49:33;;;;;;;11.80;5.80;;;;;;;-145.18;100.00;60484.78;5030424;28;20033;-70
2022/04/21 00:52:01;;;;;;;9.50;5.63;;;;;;;-145.18;100.00;60484.78;5027866;28;20385;-70
2022/04/21 00:54:31;;;;;;;9.17;5.23;;;;;;;-145.18;100.00;60484.78;5028206;28;20037;-70
2022/04/21 00:56:57;;;;;;;9.27;5.70;;;;;;;-145.18;100.00;60484.78;5023022;28;20099;-70
2022/04/21 00:59:25;;;;;;;10.37;5.90;;;;;;;-145.18;100.00;60484.78;5024295;28;20398;-70
2022/04/21 01:04:34;;;;;;;9.90;5.63;;;;;;;-145.18;100.00;60484.78;5025844;28;20045;-70
2022/04/21 01:07:00;;;;;;;11.33;6.10;;;;;;;-145.18;100.00;60484.78;5030922;28;20029;-69
2022/04/21 01:09:26;;;;;;;8.97;5.87;;;;;;;-145.18;100.00;60484.78;5024040;28;20246;-69
2022/04/21 01:11:51;;;;;;;9.73;5.70;;;;;;;-145.18;100.00;60484.78;5022353;28;20041;-69
2022/04/21 01:14:17;;;;;;;8.67;5.70;;;;;;;-145.18;100.00;60484.78;5017295;28;20107;-69
2022/04/21 01:16:42;;;;;;;9.90;6.17;;;;;;;-145.18;100.00;60484.78;4996100;28;20399;-70
2022/04/21 01:19:08;;;;;;;9.87;5.83;;;;;;;-145.18;100.00;60484.78;5015983;28;20466;-69
2022/04/21 01:21:33;;;;;;;10.27;6.40;;;;;;;-145.18;100.00;60484.78;5021218;28;20025;-69
2022/04/21 01:23:59;;;;;;;11.43;5.80;;;;;;;-145.18;100.00;60484.78;5021282;28;20437;-69
2022/04/21 01:26:35;;;;;;;11.00;5.63;;;;;;;-145.18;100.00;60484.78;5020297;28;20032;-69
2022/04/21 01:29:02;;;;;;;10.43;6.13;;;;;;;-145.18;100.00;60484.78;5017661;28;20033;-69
2022/04/21 01:31:28;;;;;;;10.37;6.23;;;;;;;-145.18;100.00;60484.78;5016509;28;21610;-69
2022/04/21 01:33:53;;;;;;;9.93;6.70;;;;;;;-145.18;100.00;60484.78;5015051;28;20075;-69
2022/04/21 01:36:19;;;;;;;11.27;6.43;;;;;;;-145.18;100.00;60484.78;5025839;28;20052;-69
2022/04/21 01:41:28;;;;;;;14.33;6.93;;;;;;;-145.18;100.00;60484.78;5020642;28;20060;-69
2022/04/21 01:43:54;;;;;;;12.23;6.93;;;;;;;-145.18;100.00;60484.78;5016680;28;20092;-69
2022/04/21 01:46:20;;;;;;;14.20;7.47;;;;;;;-145.18;100.00;60484.78;5011839;28;21821;-69
2022/04/21 01:48:45;;;;;;;11.77;6.83;;;;;;;-145.18;100.00;60484.78;5011840;28;20095;-70
2022/04/21 01:51:11;;;;;;;11.83;6.60;;;;;;;-145.18;100.00;60484.78;5017768;28;20033;-70
2022/04/21 01:53:36;;;;;;;12.83;7.63;;;;;;;-145.18;100.00;60484.78;5018356;28;20025;-70
2022/04/21 01:56:01;;;;;;;12.10;7.00;;;;;;;-145.18;100.00;60484.78;5016126;28;20037;-70
2022/04/21 01:58:27;;;;;;;13.07;7.30;;;;;;;-145.18;100.00;60484.78;5014481;28;20025;-70
2022/04/21 02:00:52;;;;;;;11.43;7.10;;;;;;;-145.18;100.00;60484.78;5018219;28;20018;-70
2022/04/21 02:03:18;;;;;;;13.87;7.77;;;;;;;-145.18;100.00;60484.78;5025588;28;20108;-70
2022/04/21 02:05:44;;;;;;;11.43;7.37;;;;;;;-145.18;100.00;60484.78;5019976;28;20029;-69
2022/04/21 02:08:09;;;;;;;13.77;7.93;;;;;;;-145.18;100.00;60484.78;5027994;28;20087;-69
2022/04/21 02:10:35;;;;;;;12.40;7.40;;;;;;;-145.18;100.00;60484.78;5016751;28;20025;-69
2022/04/21 02:13:00;;;;;;;15.53;8.13;;;;;;;-145.18;100.00;60484.78;5015277;28;20056;-69
2022/04/21 02:15:26;;;;;;;12.23;7.30;;;;;;;-145.18;100.00;60484.78;5013303;28;20088;-69
2022/04/21 02:17:52;;;;;;;12.00;7.23;;;;;;;-145.18;100.00;60484.78;5021756;28;20044;-69
2022/04/21 02:20:17;;;;;;;11.77;7.17;;;;;;;-145.18;100.00;60484.78;5016647;28;20033;-69
2022/04/21 02:22:44;;;;;;;12.07;7.20;;;;;;;-145.18;100.00;60484.78;5017035;28;20021;-70
2022/04/21 02:25:12;;;;;;;12.77;7.30;;;;;;;-145.18;100.00;60484.78;5015347;28;20018;-69
2022/04/21 02:27:41;;;;;;;13.27;7.87;;;;;;;-145.18;100.00;60484.78;5021342;28;20021;-70
2022/04/21 02:30:10;;;;;;;11.67;7.40;;;;;;;-145.18;100.00;60484.78;5023720;28;20327;-70
2022/04/21 02:32:37;;;;;;;15.37;8.30;;;;;;;-145.18;100.00;60484.78;5022776;28;20915;-70
2022/04/21 02:35:04;;;;;;;14.73;7.97;;;;;;;-145.18;100.00;60484.78;5023646;28;21727;-70
2022/04/21 02:37:41;;;;;;;14.00;8.30;;;;;;;-145.18;100.00;60484.78;5023566;28;20021;-70
2022/04/21 02:40:09;;;;;;;13.57;8.23;;;;;;;-145.18;100.00;60484.78;5020663;28;20039;-70
2022/04/21 02:42:34;;;;;;;17.47;9.43;;;;;;;-145.18;100.00;60484.78;5025761;28;20025;-69
2022/04/21 02:45:00;;;;;;;14.13;8.77;;;;;;;-145.18;100.00;60484.78;5022558;28;21124;-70
2022/04/21 02:47:25;;;;;;;14.43;8.63;;;;;;;-145.18;100.00;60484.78;5018245;28;20492;-70
2022/04/21 02:49:53;;;;;;;20.03;9.00;;;;;;;-145.18;100.00;60484.78;5019867;28;20021;-70
2022/04/21 02:52:20;;;;;;;15.20;9.07;;;;;;;-145.18;100.00;60484.78;5030534;28;20381;-70
2022/04/21 02:57:30;;;;;;;14.20;9.07;;;;;;;-145.18;100.00;60484.78;5018111;28;20040;-69
2022/04/21 03:00:01;;;;;;;13.83;9.20;;;;;;;-145.18;100.00;60484.78;5027600;28;20029;-70
2022/04/21 03:02:27;;;;;;;12.70;8.20;;;;;;;-145.18;100.00;60484.78;5024595;28;20025;-70
2022/04/21 03:04:53;;;;;;;13.77;8.70;;;;;;;-145.18;100.00;60484.78;5024355;28;20055;-70
2022/04/21 03:07:22;;;;;;;13.10;8.80;;;;;;;-145.18;100.00;60484.78;5027147;28;20033;-70
2022/04/21 03:09:49;;;;;;;16.70;8.97;;;;;;;-145.18;100.00;60484.78;5017280;28;20116;-70
2022/04/21 03:12:15;;;;;;;18.17;9.07;;;;;;;-145.18;100.00;60484.78;5020419;28;20448;-70
2022/04/21 03:14:41;;;;;;;17.20;9.30;;;;;;;-145.18;100.00;60484.78;5028475;28;20108;-70
2022/04/21 03:17:08;;;;;;;16.70;9.57;;;;;;;-145.18;100.00;60484.78;5024580;28;20045;-70
2022/04/21 03:19:35;;;;;;;17.77;9.60;;;;;;;-145.18;100.00;60484.78;5017567;28;20033;-70
2022/04/21 03:24:45;;;;;;;15.93;9.20;;;;;;;-145.18;100.00;60484.78;5021788;28;20036;-70
2022/04/21 03:27:10;;;;;;;14.63;9.17;;;;;;;-145.18;100.00;60484.78;5015693;28;20037;-70
2022/04/21 03:29:39;;;;;;;16.33;9.20;;;;;;;-145.18;100.00;60484.78;5023789;28;20025;-70
2022/04/21 03:32:10;;;;;;;17.23;9.90;;;;;;;-145.18;100.00;60484.78;5018229;28;20053;-70
2022/04/21 03:34:42;;;;;;;17.50;10.03;;;;;;;-145.18;100.00;60484.78;5024122;28;20055;-70
2022/04/21 03:37:18;;;;;;;16.53;9.93;;;;;;;-145.18;100.00;60484.78;5020678;28;20064;-70
2022/04/21 03:39:43;;;;;;;16.13;9.47;;;;;;;-145.18;100.00;60484.78;5018042;28;20423;-70
2022/04/21 03:42:31;;;;;;;17.03;10.53;;;;;;;-145.18;100.00;60484.78;5022329;28;20116;-70
2022/04/21 03:44:57;;;;;;;14.60;9.30;;;;;;;-145.18;100.00;60484.78;5026343;28;21599;-70
2022/04/21 03:47:23;;;;;;;15.27;9.43;;;;;;;-145.18;100.00;60484.78;5024926;28;20029;-70
2022/04/21 03:49:48;;;;;;;18.43;10.40;;;;;;;-145.18;100.00;60484.78;5002446;28;20545;-70
2022/04/21 03:52:14;;;;;;;16.70;10.50;;;;;;;-145.18;100.00;60484.78;5019642;28;20057;-71
2022/04/21 03:54:40;;;;;;;18.43;9.70;;;;;;;-145.18;100.00;60484.78;5016668;28;21716;-70
2022/04/21 03:57:06;;;;;;;19.57;10.30;;;;;;;-145.18;100.00;60484.78;5014012;28;20042;-70
2022/04/21 03:59:33;;;;;;;20.33;10.87;;;;;;;-145.18;100.00;60484.78;5022577;28;20557;-70
2022/04/21 04:02:04;;;;;;;17.53;10.30;;;;;;;-145.18;100.00;60484.78;5001489;28;20032;-71
2022/04/21 04:04:31;;;;;;;18.10;10.68;;;;;;;-145.18;100.00;60484.78;5018374;28;20049;-70
2022/04/21 04:12:30;;;;;;;15.80;9.33;;;;;;;-145.18;100.00;60484.78;5017185;28;20789;-70
2022/04/21 04:14:56;;;;;;;18.60;9.67;;;;;;;-145.18;100.00;60484.78;5020022;28;20047;-70
2022/04/21 04:17:21;;;;;;;17.03;9.93;;;;;;;-145.18;100.00;60484.78;5021290;28;20108;-71
2022/04/21 04:19:46;;;;;;;18.13;9.90;;;;;;;-145.18;100.00;60484.78;5014907;28;20034;-70
2022/04/21 04:22:14;;;;;;;17.67;9.63;;;;;;;-145.18;100.00;60484.78;5023371;28;20485;-70
2022/04/21 04:24:40;;;;;;;15.63;9.60;;;;;;;-145.18;100.00;60484.78;5026729;28;20037;-70
2022/04/21 04:27:08;;;;;;;14.67;9.30;;;;;;;-145.18;100.00;60484.78;5013683;28;20080;-70
2022/04/21 04:29:33;;;;;;;19.40;10.07;;;;;;;-145.18;100.00;60484.78;5001599;28;20489;-70
2022/04/21 04:32:01;;;;;;;18.50;8.63;;;;;;;-145.18;100.00;60484.78;5022090;28;20030;-70
2022/04/21 04:34:27;;;;;;;14.80;8.73;;;;;;;-145.18;100.00;60484.78;5019664;28;20033;-70
2022/04/21 04:36:52;;;;;;;16.67;9.17;;;;;;;-145.18;100.00;60484.78;5019271;28;20466;-71
2022/04/21 04:39:18;;;;;;;17.40;9.57;;;;;;;-145.18;100.00;60484.78;5013638;28;20034;-70
2022/04/21 04:44:28;;;;;;;15.37;8.67;;;;;;;-145.18;100.00;60484.78;5017037;28;20040;-70
2022/04/21 04:46:54;;;;;;;15.97;9.23;;;;;;;-145.18;100.00;60484.78;5022376;28;20029;-70
2022/04/21 04:49:20;;;;;;;14.70;8.73;;;;;;;-145.18;100.00;60484.78;5020168;28;20405;-70
2022/04/21 04:51:45;;;;;;;15.83;8.77;;;;;;;-145.18;100.00;60484.78;5019995;28;20026;-70
2022/04/21 04:54:13;;;;;;;13.53;8.60;;;;;;;-145.18;100.00;60484.78;5018935;28;21347;-70
2022/04/21 04:56:40;;;;;;;16.63;7.90;;;;;;;-145.18;100.00;60484.78;5014914;28;20069;-71
2022/04/21 04:59:06;;;;;;;12.87;7.63;;;;;;;-145.18;100.00;60484.78;5012448;28;20019;-70
2022/04/21 05:01:55;;;;;;;11.97;6.70;;;;;;;-145.18;100.00;60484.78;5020348;28;20493;-71
2022/04/21 05:04:21;;;;;;;10.93;6.20;;;;;;;-145.18;100.00;60484.78;5004617;28;20034;-70
2022/04/21 05:06:57;;;;;;;13.23;6.20;;;;;;;-145.18;100.00;60484.78;5017623;28;20044;-71
2022/04/21 05:09:24;;;;;;;13.87;6.30;;;;;;;-145.18;100.00;60484.78;5024878;28;20049;-69
2022/04/21 05:11:53;;;;;;;11.00;6.00;;;;;;;-145.18;100.00;60484.78;5016624;28;20508;-71
2022/04/21 05:14:20;;;;;;;12.03;5.87;;;;;;;-145.18;100.00;60484.78;5019392;28;20037;-68
2022/04/21 05:16:46;;;;;;;11.20;5.73;;;;;;;-145.18;100.00;60484.78;5019423;28;20021;-69
2022/04/21 05:19:13;;;;;;;11.07;5.90;;;;;;;-145.18;100.00;60484.78;5017676;28;20018;-69
2022/04/21 05:21:40;;;;;;;15.33;6.20;;;;;;;-145.18;100.00;60484.78;5025090;28;20524;-69
2022/04/21 05:24:06;;;;;;;16.27;6.00;;;;;;;-145.18;100.00;60484.78;5021612;28;20512;-69
2022/04/21 05:26:32;;;;;;;11.73;5.90;;;;;;;-145.18;100.00;60484.78;5009639;28;20026;-69
2022/04/21 05:29:00;;;;;;;16.23;5.97;;;;;;;-145.18;100.00;60484.78;5027067;28;20045;-69
2022/04/21 05:31:27;;;;;;;15.63;6.43;;;;;;;-145.18;100.00;60484.78;5020319;28;20494;-69
2022/04/21 05:33:56;;;;;;;11.43;5.13;;;;;;;-145.18;100.00;60484.78;5022565;28;20080;-69
2022/04/21 05:36:22;;;;;;;11.30;5.47;;;;;;;-145.18;100.00;60484.78;5015030;28;20057;-69
2022/04/21 05:38:49;;;;;;;11.23;5.60;;;;;;;-145.18;100.00;60484.78;5018931;28;20466;-70
2022/04/21 05:41:16;;;;;;;10.70;5.37;;;;;;;-145.18;100.00;60484.78;5018981;28;20022;-69
2022/04/21 05:43:44;;;;;;;13.60;6.00;;;;;;;-145.18;100.00;60484.78;5022991;28;20508;-69
2022/04/21 05:46:12;;;;;;;13.80;5.83;;;;;;;-145.18;100.00;60484.78;5023762;28;20662;-69
2022/04/21 05:48:38;;;;;;;8.07;4.83;;;;;;;-145.18;100.00;60484.78;5023457;28;20057;-69
2022/04/21 05:51:04;;;;;;;10.80;5.03;;;;;;;-145.18;100.00;60484.78;5016372;28;20029;-69
2022/04/21 05:53:33;;;;;;;11.33;5.23;;;;;;;-145.18;100.00;60484.78;5017573;28;20017;-69
2022/04/21 05:55:58;;;;;;;16.60;5.30;;;;;;;-145.18;100.00;60484.78;5024628;28;20076;-69
2022/04/21 05:58:25;;;;;;;8.97;4.90;;;;;;;-145.18;100.00;60484.78;5025358;28;20056;-69
2022/04/21 06:00:50;;;;;;;9.37;4.83;;;;;;;-145.18;100.00;60484.78;5017147;28;20033;-69
2022/04/21 06:03:16;;;;;;;9.10;5.00;;;;;;;-145.18;100.00;60484.78;5017386;28;20394;-68
2022/04/21 06:05:41;;;;;;;17.27;5.90;;;;;;;-145.18;100.00;60484.78;5020936;28;20022;-69
2022/04/21 06:08:07;;;;;;;20.30;6.00;;;;;;;-145.18;100.00;60484.78;5017209;28;20026;-69
2022/04/21 06:10:36;;;;;;;11.67;5.20;;;;;;;-145.18;100.00;60484.78;5020017;28;20484;-69
2022/04/21 06:13:03;;;;;;;13.17;5.03;;;;;;;-145.18;100.00;60484.78;5023976;28;20040;-69
2022/04/21 06:15:30;;;;;;;8.17;4.40;;;;;;;-145.18;100.00;60484.78;5026381;28;20022;-69
2022/04/21 06:17:56;;;;;;;9.40;4.73;;;;;;;-145.18;100.00;60484.78;5022687;28;20053;-68
2022/04/21 06:20:22;;;;;;;6.90;4.57;;;;;;;-145.18;100.00;60484.78;5028382;28;20060;-68
2022/04/21 06:22:47;;;;;;;8.40;4.13;;;;;;;-145.18;100.00;60484.78;5025817;28;20025;-69
2022/04/21 06:25:12;;;;;;;8.03;4.50;;;;;;;-145.18;100.00;60484.78;5027122;28;20029;-68
2022/04/21 06:27:38;;;;;;;8.20;3.87;;;;;;;-145.18;100.00;60484.78;5019912;28;20063;-69
2022/04/21 06:30:03;;;;;;;10.70;4.50;;;;;;;-145.18;100.00;60484.78;5017630;28;20450;-68
2022/04/21 06:32:29;;;;;;;8.68;4.38;;;;;;;-145.18;100.00;60484.78;5026291;28;20430;-68
2022/04/21 06:34:54;;;;;;;8.13;3.92;;;;;;;-145.18;100.00;60484.78;5025305;28;20045;-68
2022/04/21 06:37:20;;;;;;;7.57;4.05;;;;;;;-145.18;100.00;60484.78;5014413;28;20025;-68
2022/04/21 06:39:45;;;;;;;10.07;4.25;;;;;;;-145.18;100.00;60484.78;5021360;28;20145;-68
2022/04/21 06:42:10;;;;;;;8.15;4.30;;;;;;;-145.18;100.00;60484.78;5012964;28;20079;-68
2022/04/21 06:50:04;;;;;;;6.40;3.53;;;;;;;-145.18;100.00;60484.78;5027013;28;20083;-68
2022/04/21 06:52:32;;;;;;;9.05;3.97;;;;;;;-145.18;100.00;60484.78;5020588;28;20026;-68
2022/04/21 06:54:57;;;;;;;8.38;4.03;;;;;;;-145.18;100.00;60484.78;5022003;28;20071;-68
2022/04/21 06:57:24;;;;;;;7.03;3.42;;;;;;;-145.18;100.00;60484.78;5030841;28;20380;-68
2022/04/21 06:59:50;;;;;;;7.07;3.20;;;;;;;-145.18;100.00;60484.78;5028713;28;20029;-68
2022/04/21 07:02:16;;;;;;;6.93;3.20;;;;;;;-145.18;100.00;60484.78;5030701;28;20018;-68
2022/04/21 07:04:42;;;;;;;7.15;3.38;;;;;;;-145.18;100.00;60484.78;5027284;28;20081;-68
2022/04/21 07:07:07;;;;;;;6.32;3.17;;;;;;;-145.18;100.00;60484.78;5030227;28;20100;-67
2022/04/21 07:09:33;;;;;;;9.13;3.38;;;;;;;-145.18;100.00;60484.78;5028396;28;20029;-68
2022/04/21 07:11:59;;;;;;;9.13;4.05;;;;;;;-145.18;100.00;60484.78;5030064;28;20466;-67
2022/04/21 07:14:24;;;;;;;6.18;3.28;;;;;;;-145.18;100.00;60484.78;5028040;28;20017;-67
2022/04/21 07:16:49;;;;;;;7.45;3.53;;;;;;;-145.18;100.00;60484.78;5030672;28;20057;-68
2022/04/21 07:19:15;;;;;;;8.13;3.53;;;;;;;-145.18;100.00;60484.78;5026292;28;20026;-68
2022/04/21 07:21:40;;;;;;;6.65;3.33;;;;;;;-145.18;100.00;60484.78;5013952;28;20481;-68
2022/04/21 07:24:05;;;;;;;7.15;3.30;;;;;;;-145.18;100.00;60484.78;5029298;28;20484;-68
2022/04/21 07:26:31;;;;;;;7.13;3.70;;;;;;;-145.18;100.00;60484.78;5030242;28;20438;-68
2022/04/21 07:28:57;;;;;;;10.93;3.95;;;;;;;-145.18;100.00;60484.78;5025704;28;20406;-68
2022/04/21 07:31:23;;;;;;;7.45;3.20;;;;;;;-145.18;100.00;60484.78;5026014;28;20425;-68
2022/04/21 07:33:48;;;;;;;5.65;3.10;;;;;;;-145.18;100.00;60484.78;5027770;28;20038;-68
2022/04/21 07:36:14;;;;;;;11.60;3.83;;;;;;;-145.18;100.00;60484.78;5027503;28;20056;-69
2022/04/21 07:38:39;;;;;;;7.13;3.47;;;;;;;-145.18;100.00;60484.78;5013947;28;20037;-69
2022/04/21 07:41:04;;;;;;;6.90;3.75;;;;;;;-145.18;100.00;60484.78;5026448;28;20405;-69
2022/04/21 07:43:32;;;;;;;6.68;3.60;;;;;;;-145.18;100.00;60484.78;5015395;28;20049;-69
2022/04/21 07:45:57;;;;;;;6.20;3.50;;;;;;;-145.18;100.00;60484.78;5027439;28;20025;-69
2022/04/21 07:48:23;;;;;;;7.97;3.75;;;;;;;-145.18;100.00;60484.78;5012167;28;20474;-69
2022/04/21 07:50:49;;;;;;;6.93;3.90;;;;;;;-145.18;100.00;60484.78;5026298;28;20285;-69
2022/04/21 07:53:15;;;;;;;9.13;3.53;;;;;;;-145.18;100.00;60484.78;5029344;28;20033;-68
2022/04/21 07:55:45;;;;;;;6.82;3.45;;;;;;;-145.18;100.00;60484.78;5029655;28;20082;-68
2022/04/21 07:58:11;;;;;;;7.30;3.55;;;;;;;-145.18;100.00;60484.78;5030056;28;20071;-68
2022/04/21 08:00:38;;;;;;;6.05;3.47;;;;;;;-145.18;100.00;60484.78;5027930;28;20033;-68
2022/04/21 08:03:05;;;;;;;7.25;3.33;;;;;;;-145.18;100.00;60484.78;5029306;28;20026;-67
2022/04/21 08:05:31;;;;;;;5.05;3.08;;;;;;;-145.18;100.00;60484.78;5026137;28;20025;-68
2022/04/21 08:07:57;;;;;;;8.70;3.50;;;;;;;-145.18;100.00;60484.78;5029353;28;20036;-68
2022/04/21 08:10:24;;;;;;;5.20;2.83;;;;;;;-145.18;100.00;60484.78;5029371;28;20473;-68
2022/04/21 08:12:53;;;;;;;4.90;2.55;;;;;;;-145.18;100.00;60484.78;5028864;28;20021;-68
2022/04/21 08:15:30;;;;;;;4.90;2.65;;;;;;;-145.18;100.00;60484.78;5028185;28;20033;-68
2022/04/21 08:18:01;;;;;;;12.15;2.60;;;;;;;-145.18;100.00;60484.78;5029308;28;20124;-68
2022/04/21 08:20:28;;;;;;;4.00;2.05;;;;;;;-145.18;100.00;60484.78;5021743;28;20508;-68
2022/04/21 08:22:54;;;;;;;6.93;2.60;;;;;;;-145.18;100.00;60484.78;5012828;28;20033;-68
2022/04/21 08:33:33;;;;;;;8.55;2.47;;;;;;;-145.18;100.00;60484.78;5029180;28;20509;-69
2022/04/21 08:35:59;;;;;;;5.03;2.35;;;;;;;-145.18;100.00;60484.78;5022646;28;20022;-70
2022/04/21 08:38:25;;;;;;;4.82;2.53;;;;;;;-145.18;100.00;60484.78;5021175;28;20080;-70
2022/04/21 08:40:53;;;;;;;6.57;3.13;;;;;;;-145.18;100.00;60484.78;5019236;28;20057;-67
2022/04/21 08:43:19;;;;;;;8.32;3.05;;;;;;;-145.18;100.00;60484.78;5018519;28;20409;-69
2022/04/21 08:45:46;;;;;;;5.10;2.35;;;;;;;-145.18;100.00;60484.78;5018489;28;20026;-70
2022/04/21 08:48:13;;;;;;;6.03;2.97;;;;;;;-145.18;100.00;60484.78;5019945;28;20463;-69
2022/04/21 08:50:40;;;;;;;7.47;2.20;;;;;;;-145.18;100.00;60484.78;5018154;28;20119;-70
2022/04/21 08:53:06;;;;;;;6.40;2.83;;;;;;;-145.18;100.00;60484.78;5019271;28;20033;-67
2022/04/21 08:55:33;;;;;;;7.90;3.10;;;;;;;-145.18;100.00;60484.78;5014701;28;20030;-67
2022/04/21 08:57:59;;;;;;;5.95;2.92;;;;;;;-145.18;100.00;60484.78;5023605;28;20489;-68
2022/04/21 09:00:24;;;;;;;6.38;2.90;;;;;;;-145.18;100.00;60484.78;5018887;28;20030;-67
2022/04/21 09:02:50;;;;;;;5.25;2.30;;;;;;;-145.18;100.00;60484.78;5023841;28;20025;-67
2022/04/21 09:05:16;;;;;;;4.47;2.53;;;;;;;-145.18;100.00;60484.78;5031857;28;20033;-67
2022/04/21 09:07:46;;;;;;;6.78;3.38;;;;;;;-145.18;100.00;60484.78;5032610;28;20381;-67
2022/04/21 09:10:14;;;;;;;7.15;3.67;;;;;;;-145.18;100.00;60484.78;5024583;28;20026;-67
2022/04/21 09:12:48;;;;;;;6.45;3.22;;;;;;;-145.18;100.00;60484.78;5027568;28;20034;-67
2022/04/21 09:15:15;;;;;;;6.35;2.70;;;;;;;-145.18;100.00;60484.78;5028655;28;20021;-67
2022/04/21 09:17:46;;;;;;;5.25;2.13;;;;;;;-145.18;100.00;60484.78;5031805;28;20033;-68
2022/04/21 09:20:13;;;;;;;4.85;2.47;;;;;;;-145.18;100.00;60484.78;5028875;28;20021;-68
2022/04/21 09:22:47;;;;;;;4.38;2.67;;;;;;;-145.18;100.00;60484.78;5032320;28;20587;-68
2022/04/21 09:25:12;;;;;;;5.78;2.47;;;;;;;-145.18;100.00;60484.78;5023108;28;20474;-68
2022/04/21 09:27:43;;;;;;;7.55;2.50;;;;;;;-145.18;100.00;60484.78;5013848;28;20052;-67
2022/04/21 09:30:10;;;;;;;6.55;2.60;;;;;;;-145.18;100.00;60484.78;5026125;28;20025;-68
2022/04/21 09:32:56;;;;;;;6.28;2.60;;;;;;;-145.18;100.00;60484.78;5020411;28;20394;-69
2022/04/21 09:35:26;;;;;;;6.97;2.90;;;;;;;-145.18;100.00;60484.78;5027531;28;20056;-69
2022/04/21 09:37:56;;;;;;;4.45;2.50;;;;;;;-145.18;100.00;60484.78;5030467;28;20025;-69
2022/04/21 09:40:27;;;;;;;9.82;3.20;;;;;;;-145.18;100.00;60484.78;5027037;28;20060;-69
2022/04/21 09:43:00;;;;;;;7.28;3.13;;;;;;;-145.18;100.00;60484.78;5022381;28;20021;-69
2022/04/21 09:48:19;;;;;;;5.47;3.08;;;;;;;-145.18;100.00;60484.78;5017820;28;20045;-69
2022/04/21 09:50:49;;;;;;;4.85;2.53;;;;;;;-145.18;100.00;60484.78;5027237;28;20020;-69
2022/04/21 09:53:16;;;;;;;5.65;2.70;;;;;;;-145.18;100.00;60484.78;5025807;28;20113;-69
2022/04/21 09:55:44;;;;;;;7.20;2.92;;;;;;;-145.18;100.00;60484.78;5025275;28;20044;-68
2022/04/21 09:58:10;;;;;;;6.40;3.03;;;;;;;-145.18;100.00;60484.78;5032416;28;20457;-69
2022/04/21 10:00:37;;;;;;;5.47;2.88;;;;;;;-145.18;100.00;60484.78;5031900;28;20057;-69
2022/04/21 10:03:05;;;;;;;5.40;2.47;;;;;;;-145.18;100.00;60484.78;5026000;28;20084;-69
2022/04/21 10:05:32;;;;;;;5.97;3.00;;;;;;;-145.18;100.00;60484.78;5025957;28;20057;-69
2022/04/21 10:08:05;;;;;;;7.90;2.97;;;;;;;-145.18;100.00;60484.78;5022933;28;20056;-69
2022/04/21 10:10:34;;;;;;;7.63;2.95;;;;;;;-145.18;100.00;60484.78;5027583;28;20028;-69
2022/04/21 10:13:01;;;;;;;7.97;2.85;;;;;;;-145.18;100.00;60484.78;5030907;28;20029;-69
2022/04/21 10:15:28;;;;;;;6.35;2.85;;;;;;;-145.18;100.00;60484.78;5031115;28;20044;-71
2022/04/21 10:17:53;;;;;;;9.85;3.30;;;;;;;-145.18;100.00;60484.78;5013270;28;20020;-69
2022/04/21 10:20:26;;;;;;;6.30;2.90;;;;;;;-145.18;100.00;60484.78;5024171;28;20397;-69
2022/04/21 10:22:53;;;;;;;6.65;2.60;;;;;;;-145.18;100.00;60484.78;5020473;28;20069;-70
2022/04/21 10:25:19;;;;;;;6.38;2.50;;;;;;;-145.18;100.00;60484.78;5023288;28;20040;-69
2022/04/21 10:27:47;;;;;;;5.95;2.58;;;;;;;-145.18;100.00;60484.78;5031203;28;20453;-69
2022/04/21 10:30:22;;;;;;;4.43;2.42;;;;;;;-145.18;100.00;60484.78;5026389;28;20433;-70
2022/04/21 10:32:49;;;;;;;7.63;2.70;;;;;;;-145.18;100.00;60484.78;5017766;28;20465;-69
2022/04/21 10:35:39;;;;;;;5.80;2.78;;;;;;;-145.18;100.00;60484.78;5025677;28;20460;-70
2022/04/21 10:38:13;;;;;;;5.03;2.80;;;;;;;-145.18;100.00;60484.78;5023367;28;20033;-69
2022/04/21 10:41:00;;;;;;;6.13;2.97;;;;;;;-145.18;100.00;60484.78;5023358;28;20040;-69
2022/04/21 10:43:48;;;;;;;6.75;3.35;;;;;;;-145.18;100.00;60484.78;5016976;28;20063;-69
2022/04/21 10:46:22;;;;;;;5.95;3.08;;;;;;;-145.18;100.00;60484.78;5028237;28;20029;-70
2022/04/21 10:48:47;;;;;;;8.38;3.08;;;;;;;-145.18;100.00;60484.78;5023986;28;20168;-69
2022/04/21 10:57:11;;;;;;;5.32;3.00;;;;;;;-145.18;100.00;60484.78;5030904;28;20104;-69
2022/04/21 10:57:31;;;;;;;5.57;2.90;;;;;;;-145.18;100.00;60484.78;5024340;28;20044;-69
2022/04/21 11:00:05;;;;;;;5.72;2.60;;;;;;;-145.18;100.00;60484.78;5020127;28;20416;-69
2022/04/21 11:02:42;;;;;;;5.80;2.85;;;;;;;-145.18;100.00;60484.78;5018685;28;20029;-68
2022/04/21 11:05:22;;;;;;;6.15;3.20;;;;;;;-145.18;100.00;60484.78;5016299;28;20025;-69
2022/04/21 11:07:53;;;;;;;7.18;3.33;;;;;;;-145.18;100.00;60484.78;5021762;28;20068;-69
2022/04/21 11:10:39;;;;;;;6.40;3.55;;;;;;;-145.18;100.00;60484.78;5016897;28;20033;-69
2022/04/21 11:13:09;;;;;;;6.00;3.42;;;;;;;-145.18;100.00;60484.78;5017168;28;20030;-69
2022/04/21 11:15:50;;;;;;;6.85;3.00;;;;;;;-145.18;100.00;60484.78;5019788;28;20022;-69
2022/04/21 11:18:21;;;;;;;13.52;3.80;;;;;;;-145.18;100.00;60484.78;5028175;28;20446;-69
2022/04/21 11:20:48;;;;;;;6.20;3.33;;;;;;;-145.18;100.00;60484.78;5028650;28;20495;-69
2022/04/21 11:23:31;;;;;;;5.13;3.05;;;;;;;-145.18;100.00;60484.78;5017741;28;20025;-69
2022/04/21 11:26:05;;;;;;;5.85;3.33;;;;;;;-145.18;100.00;60484.78;5029538;28;20504;-69
2022/04/21 11:28:31;;;;;;;7.45;3.42;;;;;;;-145.18;100.00;60484.78;5029545;28;20033;-69
2022/04/21 11:31:02;;;;;;;7.05;3.45;;;;;;;-145.18;100.00;60484.78;5026288;28;20508;-69
2022/04/21 11:33:27;;;;;;;7.40;3.55;;;;;;;-145.18;100.00;60484.78;5030112;28;20597;-69
2022/04/21 11:36:10;;;;;;;11.77;3.60;;;;;;;-145.18;100.00;60484.78;5029044;28;20022;-69
2022/04/21 11:38:40;;;;;;;5.57;3.10;;;;;;;-145.18;100.00;60484.78;5029193;28;20025;-69
2022/04/21 11:41:07;;;;;;;5.55;3.13;;;;;;;-145.18;100.00;60484.78;5017580;28;20029;-69
2022/04/21 11:43:35;;;;;;;4.75;2.70;;;;;;;-145.18;100.00;60484.78;5018274;28;20025;-69
2022/04/21 11:46:05;;;;;;;5.32;2.90;;;;;;;-145.18;100.00;60484.78;5029638;28;20033;-69
2022/04/21 11:48:33;;;;;;;5.65;3.15;;;;;;;-145.18;100.00;60484.78;5029841;28;20083;-69